Atlantic Beach, North Carolina
Current Conditions -  °F | °C
As of 10:58 PM on Tuesday 27 Jan 2015 (Local Time) from KMRH Reporting Station
Clear Clear  
Wind Chill: 28°   Ceiling: Unl
Heat Index: 34°   Visibility: 10mi
Dew Point: 29°   Wind: 7mph
Humidity: 82%   Direction: 300°WNW
Pressure: 29.94"   Gusts: NA
Location:  34.7°N, 76.74°W
Report Text: KMRH 280358Z AUTO 30006KT 10SM CLR 01/M02 A2994 RMK AO2 SLP138 T00111017 TSNO
Loading
Personal Weather Stations






























Interactive Weather Map New forecast layout! Learn more

10-Day Weather Forecast

Advertisements
Track Severe Weather on mobile